sensor_id;sensor_type;location;lat;lon;timestamp;temperature;humidity
41060;DHT22;26811;53.160;8.202;2023-04-06T00:02:17;2.50;99.90
41060;DHT22;26811;53.160;8.202;2023-04-06T00:07:17;2.50;99.90
41060;DHT22;26811;53.160;8.202;2023-04-06T00:12:18;2.40;99.90
41060;DHT22;26811;53.160;8.202;2023-04-06T00:17:18;2.40;99.90
41060;DHT22;26811;53.160;8.202;2023-04-06T00:22:19;2.30;99.90
41060;DHT22;26811;53.160;8.202;2023-04-06T00:27:19;2.30;99.90
41060;DHT22;26811;53.160;8.202;2023-04-06T00:32:20;2.20;99.90
41060;DHT22;26811;53.160;8.202;2023-04-06T00:37:20;2.20;99.90
41060;DHT22;26811;53.160;8.202;2023-04-06T00:42:22;2.10;99.90
41060;DHT22;26811;53.160;8.202;2023-04-06T00:47:26;2.10;99.90
41060;DHT22;26811;53.160;8.202;2023-04-06T00:52:26;2.00;99.90
41060;DHT22;26811;53.160;8.202;2023-04-06T00:57:27;1.90;99.90
41060;DHT22;26811;53.160;8.202;2023-04-06T01:02:28;1.90;99.90
41060;DHT22;26811;53.160;8.202;2023-04-06T01:07:29;1.80;99.90
41060;DHT22;26811;53.160;8.202;2023-04-06T01:12:29;1.80;99.90
41060;DHT22;26811;53.160;8.202;2023-04-06T01:17:30;1.70;99.90
41060;DHT22;26811;53.160;8.202;2023-04-06T01:22:30;1.70;99.90
41060;DHT22;26811;53.160;8.202;2023-04-06T01:27:31;1.70;99.90
41060;DHT22;26811;53.160;8.202;2023-04-06T01:32:32;1.80;99.90
41060;DHT22;26811;53.160;8.202;2023-04-06T01:37:32;1.80;99.90
41060;DHT22;26811;53.160;8.202;2023-04-06T01:42:33;1.70;99.90
41060;DHT22;26811;53.160;8.202;2023-04-06T01:47:33;1.70;99.90
41060;DHT22;26811;53.160;8.202;2023-04-06T01:52:34;1.70;99.90
41060;DHT22;26811;53.160;8.202;2023-04-06T01:57:34;1.60;99.90
41060;DHT22;26811;53.160;8.202;2023-04-06T02:02:35;1.60;99.90
41060;DHT22;26811;53.160;8.202;2023-04-06T02:07:35;1.60;99.90
41060;DHT22;26811;53.160;8.202;2023-04-06T02:12:36;1.50;99.90
41060;DHT22;26811;53.160;8.202;2023-04-06T02:17:36;1.60;99.90
41060;DHT22;26811;53.160;8.202;2023-04-06T02:22:37;1.50;99.90
41060;DHT22;26811;53.160;8.202;2023-04-06T02:27:37;1.50;99.90
41060;DHT22;26811;53.160;8.202;2023-04-06T02:32:38;1.40;99.90
41060;DHT22;26811;53.160;8.202;2023-04-06T02:37:39;1.40;99.90
41060;DHT22;26811;53.160;8.202;2023-04-06T02:42:39;1.40;99.90
41060;DHT22;26811;53.160;8.202;2023-04-06T02:47:40;1.30;99.90
41060;DHT22;26811;53.160;8.202;2023-04-06T02:52:41;1.30;99.90
41060;DHT22;26811;53.160;8.202;2023-04-06T02:57:41;1.20;99.90
41060;DHT22;26811;53.160;8.202;2023-04-06T03:02:42;1.10;99.90
41060;DHT22;26811;53.160;8.202;2023-04-06T03:07:43;1.00;99.90
41060;DHT22;26811;53.160;8.202;2023-04-06T03:12:43;0.90;99.90
41060;DHT22;26811;53.160;8.202;2023-04-06T03:17:44;0.90;99.90
41060;DHT22;26811;53.160;8.202;2023-04-06T03:22:44;0.80;99.90
41060;DHT22;26811;53.160;8.202;2023-04-06T03:27:45;0.80;99.90
41060;DHT22;26811;53.160;8.202;2023-04-06T03:32:45;0.70;99.90
41060;DHT22;26811;53.160;8.202;2023-04-06T03:37:46;0.60;99.90
41060;DHT22;26811;53.160;8.202;2023-04-06T03:42:46;0.60;99.90
41060;DHT22;26811;53.160;8.202;2023-04-06T03:47:47;0.50;99.90
41060;DHT22;26811;53.160;8.202;2023-04-06T03:52:47;0.50;99.90
41060;DHT22;26811;53.160;8.202;2023-04-06T03:57:48;0.50;99.90
41060;DHT22;26811;53.160;8.202;2023-04-06T04:02:48;0.50;99.90
41060;DHT22;26811;53.160;8.202;2023-04-06T04:07:49;0.50;99.90
41060;DHT22;26811;53.160;8.202;2023-04-06T04:12:49;0.40;99.90
41060;DHT22;26811;53.160;8.202;2023-04-06T04:17:50;0.40;99.90
41060;DHT22;26811;53.160;8.202;2023-04-06T04:22:50;0.50;99.90
41060;DHT22;26811;53.160;8.202;2023-04-06T04:27:51;0.40;99.90
41060;DHT22;26811;53.160;8.202;2023-04-06T04:32:52;0.40;99.90
41060;DHT22;26811;53.160;8.202;2023-04-06T04:37:52;0.40;99.90
41060;DHT22;26811;53.160;8.202;2023-04-06T04:42:53;0.40;99.90
41060;DHT22;26811;53.160;8.202;2023-04-06T04:47:53;0.40;99.90
41060;DHT22;26811;53.160;8.202;2023-04-06T04:52:54;0.40;99.90
41060;DHT22;26811;53.160;8.202;2023-04-06T04:57:54;0.40;99.90
41060;DHT22;26811;53.160;8.202;2023-04-06T05:02:55;0.40;99.90
41060;DHT22;26811;53.160;8.202;2023-04-06T05:07:56;0.40;99.90
41060;DHT22;26811;53.160;8.202;2023-04-06T05:12:57;0.40;99.90
41060;DHT22;26811;53.160;8.202;2023-04-06T05:17:57;0.50;99.90
41060;DHT22;26811;53.160;8.202;2023-04-06T05:22:58;0.50;99.90
41060;DHT22;26811;53.160;8.202;2023-04-06T05:27:58;0.60;99.90
41060;DHT22;26811;53.160;8.202;2023-04-06T05:32:59;0.70;99.90
41060;DHT22;26811;53.160;8.202;2023-04-06T05:38:00;0.90;99.90
41060;DHT22;26811;53.160;8.202;2023-04-06T05:43:00;1.00;99.90
41060;DHT22;26811;53.160;8.202;2023-04-06T05:48:02;1.10;99.90
41060;DHT22;26811;53.160;8.202;2023-04-06T05:53:02;1.20;99.90
41060;DHT22;26811;53.160;8.202;2023-04-06T05:58:03;1.30;99.90
41060;DHT22;26811;53.160;8.202;2023-04-06T06:03:03;1.40;99.90
41060;DHT22;26811;53.160;8.202;2023-04-06T06:08:06;1.60;99.90
41060;DHT22;26811;53.160;8.202;2023-04-06T06:13:06;1.80;99.90
41060;DHT22;26811;53.160;8.202;2023-04-06T06:18:07;2.00;99.90
41060;DHT22;26811;53.160;8.202;2023-04-06T06:23:07;2.20;99.90
41060;DHT22;26811;53.160;8.202;2023-04-06T06:28:08;2.50;99.90
41060;DHT22;26811;53.160;8.202;2023-04-06T06:33:09;2.80;99.90
41060;DHT22;26811;53.160;8.202;2023-04-06T06:38:09;3.40;99.90
41060;DHT22;26811;53.160;8.202;2023-04-06T06:43:10;4.00;99.90
41060;DHT22;26811;53.160;8.202;2023-04-06T06:48:10;4.70;99.90
41060;DHT22;26811;53.160;8.202;2023-04-06T06:53:11;6.30;99.90
41060;DHT22;26811;53.160;8.202;2023-04-06T06:58:11;7.70;99.90
41060;DHT22;26811;53.160;8.202;2023-04-06T07:03:12;8.20;99.90
41060;DHT22;26811;53.160;8.202;2023-04-06T07:08:13;9.50;96.90
41060;DHT22;26811;53.160;8.202;2023-04-06T07:13:14;10.90;92.20
41060;DHT22;26811;53.160;8.202;2023-04-06T07:18:21;12.40;90.00
41060;DHT22;26811;53.160;8.202;2023-04-06T07:23:22;13.10;86.50
41060;DHT22;26811;53.160;8.202;2023-04-06T07:28:22;14.10;79.90
41060;DHT22;26811;53.160;8.202;2023-04-06T07:33:23;14.80;77.40
41060;DHT22;26811;53.160;8.202;2023-04-06T07:38:24;15.20;76.70
41060;DHT22;26811;53.160;8.202;2023-04-06T07:43:24;15.80;73.20
41060;DHT22;26811;53.160;8.202;2023-04-06T07:48:25;15.00;73.30
41060;DHT22;26811;53.160;8.202;2023-04-06T07:53:26;15.10;74.30
41060;DHT22;26811;53.160;8.202;2023-04-06T07:58:26;15.90;70.30
41060;DHT22;26811;53.160;8.202;2023-04-06T08:03:27;15.50;70.30
41060;DHT22;26811;53.160;8.202;2023-04-06T08:08:27;15.70;70.70
41060;DHT22;26811;53.160;8.202;2023-04-06T08:13:28;16.20;68.40
41060;DHT22;26811;53.160;8.202;2023-04-06T08:18:29;16.60;68.30
41060;DHT22;26811;53.160;8.202;2023-04-06T08:23:30;15.90;68.20
41060;DHT22;26811;53.160;8.202;2023-04-06T08:28:30;15.20;69.50
41060;DHT22;26811;53.160;8.202;2023-04-06T08:33:31;14.70;70.80
41060;DHT22;26811;53.160;8.202;2023-04-06T08:38:32;14.40;70.60
41060;DHT22;26811;53.160;8.202;2023-04-06T08:43:35;14.80;68.70
41060;DHT22;26811;53.160;8.202;2023-04-06T08:48:41;13.90;68.60
41060;DHT22;26811;53.160;8.202;2023-04-06T08:53:42;13.90;68.90
41060;DHT22;26811;53.160;8.202;2023-04-06T08:58:43;13.40;71.20
41060;DHT22;26811;53.160;8.202;2023-04-06T09:03:44;14.30;69.20
41060;DHT22;26811;53.160;8.202;2023-04-06T09:08:46;14.90;69.20
41060;DHT22;26811;53.160;8.202;2023-04-06T09:13:54;14.60;70.90
41060;DHT22;26811;53.160;8.202;2023-04-06T09:19:04;14.70;69.70
41060;DHT22;26811;53.160;8.202;2023-04-06T09:24:07;14.50;69.50
41060;DHT22;26811;53.160;8.202;2023-04-06T09:29:07;14.80;69.60
41060;DHT22;26811;53.160;8.202;2023-04-06T09:34:08;14.70;69.70
41060;DHT22;26811;53.160;8.202;2023-04-06T09:39:08;14.30;69.60
41060;DHT22;26811;53.160;8.202;2023-04-06T09:44:12;14.10;69.70
41060;DHT22;26811;53.160;8.202;2023-04-06T09:49:13;13.60;70.50
41060;DHT22;26811;53.160;8.202;2023-04-06T09:54:27;13.60;72.60
41060;DHT22;26811;53.160;8.202;2023-04-06T09:59:40;14.00;72.40
41060;DHT22;26811;53.160;8.202;2023-04-06T10:04:49;14.40;72.50
41060;DHT22;26811;53.160;8.202;2023-04-06T10:09:55;14.30;69.20
41060;DHT22;26811;53.160;8.202;2023-04-06T10:14:56;13.50;70.70
41060;DHT22;26811;53.160;8.202;2023-04-06T10:25:09;14.00;71.20
41060;DHT22;26811;53.160;8.202;2023-04-06T10:30:09;14.30;68.20
41060;DHT22;26811;53.160;8.202;2023-04-06T10:35:11;14.50;67.00
41060;DHT22;26811;53.160;8.202;2023-04-06T10:40:23;14.40;66.70
41060;DHT22;26811;53.160;8.202;2023-04-06T10:45:26;14.30;67.50
41060;DHT22;26811;53.160;8.202;2023-04-06T10:50:28;14.40;67.30
41060;DHT22;26811;53.160;8.202;2023-04-06T10:55:30;14.20;67.50
41060;DHT22;26811;53.160;8.202;2023-04-06T11:00:31;14.30;67.30
41060;DHT22;26811;53.160;8.202;2023-04-06T11:05:32;14.60;68.40
41060;DHT22;26811;53.160;8.202;2023-04-06T11:10:32;14.50;66.10
41060;DHT22;26811;53.160;8.202;2023-04-06T11:15:36;14.30;66.80
41060;DHT22;26811;53.160;8.202;2023-04-06T11:20:36;14.20;66.50
41060;DHT22;26811;53.160;8.202;2023-04-06T11:25:37;14.10;68.40
41060;DHT22;26811;53.160;8.202;2023-04-06T11:30:37;14.10;68.00
41060;DHT22;26811;53.160;8.202;2023-04-06T11:35:38;14.00;66.00
41060;DHT22;26811;53.160;8.202;2023-04-06T11:40:39;14.10;66.10
41060;DHT22;26811;53.160;8.202;2023-04-06T11:45:43;14.10;66.70
41060;DHT22;26811;53.160;8.202;2023-04-06T11:50:46;14.20;66.30
41060;DHT22;26811;53.160;8.202;2023-04-06T11:55:47;14.10;65.20
41060;DHT22;26811;53.160;8.202;2023-04-06T12:00:47;14.10;68.80
41060;DHT22;26811;53.160;8.202;2023-04-06T12:05:48;14.20;64.80
41060;DHT22;26811;53.160;8.202;2023-04-06T12:10:49;14.20;65.60
41060;DHT22;26811;53.160;8.202;2023-04-06T12:15:50;14.40;66.30
41060;DHT22;26811;53.160;8.202;2023-04-06T12:20:51;14.30;67.20
41060;DHT22;26811;53.160;8.202;2023-04-06T12:25:52;14.30;66.20
41060;DHT22;26811;53.160;8.202;2023-04-06T12:30:53;14.30;69.00
41060;DHT22;26811;53.160;8.202;2023-04-06T12:35:54;14.60;67.80
41060;DHT22;26811;53.160;8.202;2023-04-06T12:40:55;14.70;65.60
41060;DHT22;26811;53.160;8.202;2023-04-06T12:45:55;14.80;66.60
41060;DHT22;26811;53.160;8.202;2023-04-06T12:51:01;14.70;67.30
41060;DHT22;26811;53.160;8.202;2023-04-06T12:56:09;14.80;65.20
41060;DHT22;26811;53.160;8.202;2023-04-06T13:01:11;14.80;65.60
41060;DHT22;26811;53.160;8.202;2023-04-06T13:06:13;14.80;64.50
41060;DHT22;26811;53.160;8.202;2023-04-06T13:11:15;14.80;65.30
41060;DHT22;26811;53.160;8.202;2023-04-06T13:16:15;14.70;65.30
41060;DHT22;26811;53.160;8.202;2023-04-06T13:21:16;14.70;65.00
41060;DHT22;26811;53.160;8.202;2023-04-06T13:26:17;14.70;65.30
41060;DHT22;26811;53.160;8.202;2023-04-06T13:31:18;14.80;64.10
41060;DHT22;26811;53.160;8.202;2023-04-06T13:36:18;14.70;64.40
41060;DHT22;26811;53.160;8.202;2023-04-06T13:41:20;14.50;65.20
41060;DHT22;26811;53.160;8.202;2023-04-06T13:46:21;14.30;65.20
41060;DHT22;26811;53.160;8.202;2023-04-06T13:51:24;14.20;66.20
41060;DHT22;26811;53.160;8.202;2023-04-06T13:56:24;14.30;65.70
41060;DHT22;26811;53.160;8.202;2023-04-06T14:01:25;14.30;67.20
41060;DHT22;26811;53.160;8.202;2023-04-06T14:06:26;14.60;66.40
41060;DHT22;26811;53.160;8.202;2023-04-06T14:11:27;14.80;66.30
41060;DHT22;26811;53.160;8.202;2023-04-06T14:16:28;15.20;65.30
41060;DHT22;26811;53.160;8.202;2023-04-06T14:21:29;15.20;64.90
41060;DHT22;26811;53.160;8.202;2023-04-06T14:26:29;15.20;65.60
41060;DHT22;26811;53.160;8.202;2023-04-06T14:31:30;15.10;66.20
41060;DHT22;26811;53.160;8.202;2023-04-06T14:36:32;15.00;66.40
41060;DHT22;26811;53.160;8.202;2023-04-06T14:41:39;14.90;65.70
41060;DHT22;26811;53.160;8.202;2023-04-06T14:46:39;15.00;66.80
41060;DHT22;26811;53.160;8.202;2023-04-06T14:51:40;15.00;65.50
41060;DHT22;26811;53.160;8.202;2023-04-06T14:56:41;14.90;65.10
41060;DHT22;26811;53.160;8.202;2023-04-06T15:01:43;15.00;68.00
41060;DHT22;26811;53.160;8.202;2023-04-06T15:06:43;15.10;63.90
41060;DHT22;26811;53.160;8.202;2023-04-06T15:11:44;15.00;61.10
41060;DHT22;26811;53.160;8.202;2023-04-06T15:16:44;15.00;62.30
41060;DHT22;26811;53.160;8.202;2023-04-06T15:21:45;15.00;61.30
41060;DHT22;26811;53.160;8.202;2023-04-06T15:26:46;14.90;61.10
41060;DHT22;26811;53.160;8.202;2023-04-06T15:31:46;14.60;61.90
41060;DHT22;26811;53.160;8.202;2023-04-06T15:36:47;14.50;62.90
41060;DHT22;26811;53.160;8.202;2023-04-06T15:41:47;14.40;63.00
41060;DHT22;26811;53.160;8.202;2023-04-06T15:46:48;14.30;62.60
41060;DHT22;26811;53.160;8.202;2023-04-06T15:51:49;14.30;62.70
41060;DHT22;26811;53.160;8.202;2023-04-06T15:56:50;14.20;62.70
41060;DHT22;26811;53.160;8.202;2023-04-06T16:01:51;14.20;62.80
41060;DHT22;26811;53.160;8.202;2023-04-06T16:06:53;14.10;61.30
41060;DHT22;26811;53.160;8.202;2023-04-06T16:11:53;14.10;61.80
41060;DHT22;26811;53.160;8.202;2023-04-06T16:16:54;14.10;61.60
41060;DHT22;26811;53.160;8.202;2023-04-06T16:21:54;14.10;62.10
41060;DHT22;26811;53.160;8.202;2023-04-06T16:26:55;14.10;62.80
41060;DHT22;26811;53.160;8.202;2023-04-06T16:31:57;14.00;62.50
41060;DHT22;26811;53.160;8.202;2023-04-06T16:36:58;13.90;63.30
41060;DHT22;26811;53.160;8.202;2023-04-06T16:41:58;13.80;63.60
41060;DHT22;26811;53.160;8.202;2023-04-06T16:46:59;13.80;63.30
41060;DHT22;26811;53.160;8.202;2023-04-06T16:51:59;13.70;63.30
41060;DHT22;26811;53.160;8.202;2023-04-06T16:57:02;13.70;64.50
41060;DHT22;26811;53.160;8.202;2023-04-06T17:02:03;13.50;65.10
41060;DHT22;26811;53.160;8.202;2023-04-06T17:07:03;13.40;65.00
41060;DHT22;26811;53.160;8.202;2023-04-06T17:12:04;13.20;66.70
41060;DHT22;26811;53.160;8.202;2023-04-06T17:17:04;13.00;67.00
41060;DHT22;26811;53.160;8.202;2023-04-06T17:22:05;12.90;67.60
41060;DHT22;26811;53.160;8.202;2023-04-06T17:27:06;12.70;67.20
41060;DHT22;26811;53.160;8.202;2023-04-06T17:32:07;12.60;67.60
41060;DHT22;26811;53.160;8.202;2023-04-06T17:37:08;12.60;67.90
41060;DHT22;26811;53.160;8.202;2023-04-06T17:42:08;12.50;67.90
41060;DHT22;26811;53.160;8.202;2023-04-06T17:47:09;12.40;68.30
41060;DHT22;26811;53.160;8.202;2023-04-06T17:52:10;12.30;68.90
41060;DHT22;26811;53.160;8.202;2023-04-06T17:57:10;12.10;70.30
41060;DHT22;26811;53.160;8.202;2023-04-06T18:02:11;11.80;71.20
41060;DHT22;26811;53.160;8.202;2023-04-06T18:07:12;11.60;71.50
41060;DHT22;26811;53.160;8.202;2023-04-06T18:12:12;11.40;71.60
41060;DHT22;26811;53.160;8.202;2023-04-06T18:17:13;11.30;73.10
41060;DHT22;26811;53.160;8.202;2023-04-06T18:22:14;11.20;72.70
41060;DHT22;26811;53.160;8.202;2023-04-06T18:27:15;11.00;73.20
41060;DHT22;26811;53.160;8.202;2023-04-06T18:32:17;10.80;74.50
41060;DHT22;26811;53.160;8.202;2023-04-06T18:37:24;10.70;75.20
41060;DHT22;26811;53.160;8.202;2023-04-06T18:42:25;10.50;75.80
41060;DHT22;26811;53.160;8.202;2023-04-06T18:47:25;10.30;77.50
41060;DHT22;26811;53.160;8.202;2023-04-06T18:52:26;10.10;77.90
41060;DHT22;26811;53.160;8.202;2023-04-06T18:57:26;10.00;78.30
41060;DHT22;26811;53.160;8.202;2023-04-06T19:02:27;9.90;78.80
41060;DHT22;26811;53.160;8.202;2023-04-06T19:07:27;9.80;79.10
41060;DHT22;26811;53.160;8.202;2023-04-06T19:12:28;9.70;79.20
41060;DHT22;26811;53.160;8.202;2023-04-06T19:17:28;9.70;80.10
41060;DHT22;26811;53.160;8.202;2023-04-06T19:22:29;9.70;78.80
41060;DHT22;26811;53.160;8.202;2023-04-06T19:27:30;9.80;78.90
41060;DHT22;26811;53.160;8.202;2023-04-06T19:32:31;9.90;79.10
41060;DHT22;26811;53.160;8.202;2023-04-06T19:37:32;9.90;81.70
41060;DHT22;26811;53.160;8.202;2023-04-06T19:42:36;9.90;82.80
41060;DHT22;26811;53.160;8.202;2023-04-06T19:47:38;10.00;80.20
41060;DHT22;26811;53.160;8.202;2023-04-06T19:52:38;10.20;78.10
41060;DHT22;26811;53.160;8.202;2023-04-06T19:57:39;10.40;77.50
41060;DHT22;26811;53.160;8.202;2023-04-06T20:02:39;10.30;77.60
41060;DHT22;26811;53.160;8.202;2023-04-06T20:07:40;10.20;77.80
41060;DHT22;26811;53.160;8.202;2023-04-06T20:12:41;10.10;78.70
41060;DHT22;26811;53.160;8.202;2023-04-06T20:17:42;9.90;79.40
41060;DHT22;26811;53.160;8.202;2023-04-06T20:22:43;9.90;80.40
41060;DHT22;26811;53.160;8.202;2023-04-06T20:27:44;9.80;80.80
41060;DHT22;26811;53.160;8.202;2023-04-06T20:32:45;9.70;82.30
41060;DHT22;26811;53.160;8.202;2023-04-06T20:37:45;9.60;81.50
41060;DHT22;26811;53.160;8.202;2023-04-06T20:42:46;9.60;81.60
41060;DHT22;26811;53.160;8.202;2023-04-06T20:47:50;9.60;84.20
41060;DHT22;26811;53.160;8.202;2023-04-06T20:52:51;9.40;85.70
41060;DHT22;26811;53.160;8.202;2023-04-06T20:57:51;9.30;86.70
41060;DHT22;26811;53.160;8.202;2023-04-06T21:02:52;9.20;88.00
41060;DHT22;26811;53.160;8.202;2023-04-06T21:07:53;9.20;89.30
41060;DHT22;26811;53.160;8.202;2023-04-06T21:12:53;9.00;90.80
41060;DHT22;26811;53.160;8.202;2023-04-06T21:17:54;8.90;91.20
41060;DHT22;26811;53.160;8.202;2023-04-06T21:22:54;8.80;92.10
41060;DHT22;26811;53.160;8.202;2023-04-06T21:27:55;8.70;92.70
41060;DHT22;26811;53.160;8.202;2023-04-06T21:32:55;8.70;94.20
41060;DHT22;26811;53.160;8.202;2023-04-06T21:37:56;8.60;94.70
41060;DHT22;26811;53.160;8.202;2023-04-06T21:42:56;8.60;95.20
41060;DHT22;26811;53.160;8.202;2023-04-06T21:47:57;8.60;95.00
41060;DHT22;26811;53.160;8.202;2023-04-06T21:52:58;8.70;94.10
41060;DHT22;26811;53.160;8.202;2023-04-06T21:57:59;8.90;94.80
41060;DHT22;26811;53.160;8.202;2023-04-06T22:02:59;9.00;94.70
41060;DHT22;26811;53.160;8.202;2023-04-06T22:08:00;9.00;95.50
41060;DHT22;26811;53.160;8.202;2023-04-06T22:13:01;8.90;96.20
41060;DHT22;26811;53.160;8.202;2023-04-06T22:18:01;8.90;97.10
41060;DHT22;26811;53.160;8.202;2023-04-06T22:23:02;8.90;98.60
41060;DHT22;26811;53.160;8.202;2023-04-06T22:28:03;8.90;99.90
41060;DHT22;26811;53.160;8.202;2023-04-06T22:33:05;8.90;99.90
41060;DHT22;26811;53.160;8.202;2023-04-06T22:38:06;8.90;99.90
41060;DHT22;26811;53.160;8.202;2023-04-06T22:43:06;8.90;99.90
41060;DHT22;26811;53.160;8.202;2023-04-06T22:48:07;8.80;99.90
41060;DHT22;26811;53.160;8.202;2023-04-06T22:53:07;8.80;99.90
41060;DHT22;26811;53.160;8.202;2023-04-06T22:58:08;8.80;99.90
41060;DHT22;26811;53.160;8.202;2023-04-06T23:03:09;8.70;99.90
41060;DHT22;26811;53.160;8.202;2023-04-06T23:08:11;8.70;99.90
41060;DHT22;26811;53.160;8.202;2023-04-06T23:13:11;8.80;99.90
41060;DHT22;26811;53.160;8.202;2023-04-06T23:18:12;9.00;99.90
41060;DHT22;26811;53.160;8.202;2023-04-06T23:23:12;9.20;99.90
41060;DHT22;26811;53.160;8.202;2023-04-06T23:28:13;9.20;99.90
41060;DHT22;26811;53.160;8.202;2023-04-06T23:33:13;9.00;99.90
41060;DHT22;26811;53.160;8.202;2023-04-06T23:38:14;8.90;99.90
41060;DHT22;26811;53.160;8.202;2023-04-06T23:43:14;8.90;99.90
41060;DHT22;26811;53.160;8.202;2023-04-06T23:48:15;8.70;99.90
41060;DHT22;26811;53.160;8.202;2023-04-06T23:53:15;8.60;99.90
41060;DHT22;26811;53.160;8.202;2023-04-06T23:58:16;8.40;99.90
